sensor_id;sensor_type;location;lat;lon;timestamp;P1;durP1;ratioP1;P2;durP2;ratioP2
76540;SDS011;65385;55.772;37.658;2023-08-06T00:00:24;14.13;;;5.72;;
76540;SDS011;65385;55.772;37.658;2023-08-06T00:01:25;14.73;;;6.25;;
76540;SDS011;65385;55.772;37.658;2023-08-06T00:02:26;10.63;;;5.60;;
76540;SDS011;65385;55.772;37.658;2023-08-06T00:03:26;11.02;;;6.38;;
76540;SDS011;65385;55.772;37.658;2023-08-06T00:04:27;9.48;;;5.38;;
76540;SDS011;65385;55.772;37.658;2023-08-06T00:05:28;9.90;;;5.72;;
76540;SDS011;65385;55.772;37.658;2023-08-06T00:06:28;11.40;;;6.05;;
76540;SDS011;65385;55.772;37.658;2023-08-06T00:07:29;13.55;;;6.43;;
76540;SDS011;65385;55.772;37.658;2023-08-06T00:08:29;10.60;;;5.95;;
76540;SDS011;65385;55.772;37.658;2023-08-06T00:09:30;12.15;;;6.80;;
76540;SDS011;65385;55.772;37.658;2023-08-06T00:10:31;10.00;;;6.22;;
76540;SDS011;65385;55.772;37.658;2023-08-06T00:11:31;8.77;;;6.03;;
76540;SDS011;65385;55.772;37.658;2023-08-06T00:12:32;8.10;;;5.93;;
76540;SDS011;65385;55.772;37.658;2023-08-06T00:13:33;10.43;;;6.68;;
76540;SDS011;65385;55.772;37.658;2023-08-06T00:14:33;13.07;;;6.35;;
76540;SDS011;65385;55.772;37.658;2023-08-06T00:15:34;12.02;;;6.18;;
76540;SDS011;65385;55.772;37.658;2023-08-06T00:16:34;9.85;;;5.60;;
76540;SDS011;65385;55.772;37.658;2023-08-06T00:17:35;10.32;;;5.82;;
76540;SDS011;65385;55.772;37.658;2023-08-06T00:18:36;10.55;;;6.07;;
76540;SDS011;65385;55.772;37.658;2023-08-06T00:19:37;7.10;;;4.78;;
76540;SDS011;65385;55.772;37.658;2023-08-06T00:20:40;14.75;;;6.25;;
76540;SDS011;65385;55.772;37.658;2023-08-06T00:21:41;12.35;;;6.32;;
76540;SDS011;65385;55.772;37.658;2023-08-06T00:22:42;13.73;;;5.55;;
76540;SDS011;65385;55.772;37.658;2023-08-06T00:23:43;10.75;;;6.05;;
76540;SDS011;65385;55.772;37.658;2023-08-06T00:24:43;12.68;;;6.30;;
76540;SDS011;65385;55.772;37.658;2023-08-06T00:25:44;10.00;;;6.28;;
76540;SDS011;65385;55.772;37.658;2023-08-06T00:26:44;11.75;;;5.93;;
76540;SDS011;65385;55.772;37.658;2023-08-06T00:27:45;9.23;;;6.47;;
76540;SDS011;65385;55.772;37.658;2023-08-06T00:28:46;10.55;;;6.25;;
76540;SDS011;65385;55.772;37.658;2023-08-06T00:29:46;12.00;;;6.03;;
76540;SDS011;65385;55.772;37.658;2023-08-06T00:30:53;10.25;;;6.43;;
76540;SDS011;65385;55.772;37.658;2023-08-06T00:31:54;10.10;;;6.00;;
76540;SDS011;65385;55.772;37.658;2023-08-06T00:32:55;13.50;;;5.90;;
76540;SDS011;65385;55.772;37.658;2023-08-06T00:33:56;14.05;;;6.20;;
76540;SDS011;65385;55.772;37.658;2023-08-06T00:34:56;9.80;;;5.63;;
76540;SDS011;65385;55.772;37.658;2023-08-06T00:35:57;9.25;;;5.47;;
76540;SDS011;65385;55.772;37.658;2023-08-06T00:36:57;10.88;;;5.55;;
76540;SDS011;65385;55.772;37.658;2023-08-06T00:37:58;9.85;;;5.55;;
76540;SDS011;65385;55.772;37.658;2023-08-06T00:38:59;10.32;;;6.07;;
76540;SDS011;65385;55.772;37.658;2023-08-06T00:39:59;9.13;;;5.72;;
76540;SDS011;65385;55.772;37.658;2023-08-06T00:41:00;9.38;;;5.82;;
76540;SDS011;65385;55.772;37.658;2023-08-06T00:42:01;9.95;;;5.72;;
76540;SDS011;65385;55.772;37.658;2023-08-06T00:43:01;10.82;;;6.10;;
76540;SDS011;65385;55.772;37.658;2023-08-06T00:44:02;11.45;;;6.03;;
76540;SDS011;65385;55.772;37.658;2023-08-06T00:45:03;7.75;;;5.60;;
76540;SDS011;65385;55.772;37.658;2023-08-06T00:46:04;7.53;;;5.18;;
76540;SDS011;65385;55.772;37.658;2023-08-06T00:47:06;10.77;;;6.00;;
76540;SDS011;65385;55.772;37.658;2023-08-06T00:48:08;12.35;;;5.20;;
76540;SDS011;65385;55.772;37.658;2023-08-06T00:49:08;11.18;;;6.15;;
76540;SDS011;65385;55.772;37.658;2023-08-06T00:50:10;10.30;;;5.85;;
76540;SDS011;65385;55.772;37.658;2023-08-06T00:51:10;8.55;;;5.50;;
76540;SDS011;65385;55.772;37.658;2023-08-06T00:52:12;9.05;;;5.20;;
76540;SDS011;65385;55.772;37.658;2023-08-06T00:53:14;9.20;;;5.22;;
76540;SDS011;65385;55.772;37.658;2023-08-06T00:54:15;10.30;;;5.82;;
76540;SDS011;65385;55.772;37.658;2023-08-06T00:55:16;9.90;;;5.82;;
76540;SDS011;65385;55.772;37.658;2023-08-06T00:56:17;8.00;;;5.40;;
76540;SDS011;65385;55.772;37.658;2023-08-06T00:57:19;11.07;;;5.75;;
76540;SDS011;65385;55.772;37.658;2023-08-06T00:58:22;10.55;;;5.72;;
76540;SDS011;65385;55.772;37.658;2023-08-06T00:59:23;9.88;;;5.72;;
76540;SDS011;65385;55.772;37.658;2023-08-06T01:00:23;12.73;;;5.85;;
76540;SDS011;65385;55.772;37.658;2023-08-06T01:01:25;9.05;;;5.53;;
76540;SDS011;65385;55.772;37.658;2023-08-06T01:02:25;13.05;;;5.85;;
76540;SDS011;65385;55.772;37.658;2023-08-06T01:03:26;12.63;;;5.85;;
76540;SDS011;65385;55.772;37.658;2023-08-06T01:04:26;13.25;;;5.72;;
76540;SDS011;65385;55.772;37.658;2023-08-06T01:05:27;12.75;;;5.47;;
76540;SDS011;65385;55.772;37.658;2023-08-06T01:07:01;11.55;;;6.20;;
76540;SDS011;65385;55.772;37.658;2023-08-06T01:10:49;8.45;;;5.60;;
76540;SDS011;65385;55.772;37.658;2023-08-06T01:13:36;11.05;;;6.28;;
76540;SDS011;65385;55.772;37.658;2023-08-06T01:14:52;10.95;;;5.95;;
76540;SDS011;65385;55.772;37.658;2023-08-06T01:16:00;12.68;;;6.03;;
76540;SDS011;65385;55.772;37.658;2023-08-06T01:17:02;10.73;;;6.60;;
76540;SDS011;65385;55.772;37.658;2023-08-06T01:18:04;10.07;;;6.32;;
76540;SDS011;65385;55.772;37.658;2023-08-06T01:19:15;11.00;;;6.65;;
76540;SDS011;65385;55.772;37.658;2023-08-06T01:20:19;10.30;;;6.25;;
76540;SDS011;65385;55.772;37.658;2023-08-06T01:21:20;10.18;;;6.03;;
76540;SDS011;65385;55.772;37.658;2023-08-06T01:22:20;10.90;;;6.25;;
76540;SDS011;65385;55.772;37.658;2023-08-06T01:23:21;12.15;;;6.28;;
76540;SDS011;65385;55.772;37.658;2023-08-06T01:24:22;12.02;;;6.85;;
76540;SDS011;65385;55.772;37.658;2023-08-06T01:25:25;10.15;;;6.35;;
76540;SDS011;65385;55.772;37.658;2023-08-06T01:26:51;11.85;;;5.85;;
76540;SDS011;65385;55.772;37.658;2023-08-06T01:29:19;9.55;;;5.63;;
76540;SDS011;65385;55.772;37.658;2023-08-06T01:30:29;12.30;;;6.30;;
76540;SDS011;65385;55.772;37.658;2023-08-06T01:31:39;12.70;;;5.88;;
76540;SDS011;65385;55.772;37.658;2023-08-06T01:32:44;12.00;;;5.78;;
76540;SDS011;65385;55.772;37.658;2023-08-06T01:33:49;12.52;;;6.65;;
76540;SDS011;65385;55.772;37.658;2023-08-06T01:34:50;14.60;;;6.38;;
76540;SDS011;65385;55.772;37.658;2023-08-06T01:35:52;13.50;;;6.38;;
76540;SDS011;65385;55.772;37.658;2023-08-06T01:36:54;10.38;;;6.30;;
76540;SDS011;65385;55.772;37.658;2023-08-06T01:37:56;11.68;;;6.43;;
76540;SDS011;65385;55.772;37.658;2023-08-06T01:38:57;10.90;;;6.32;;
76540;SDS011;65385;55.772;37.658;2023-08-06T01:39:59;14.75;;;6.40;;
76540;SDS011;65385;55.772;37.658;2023-08-06T01:41:00;13.10;;;7.07;;
76540;SDS011;65385;55.772;37.658;2023-08-06T01:42:00;16.80;;;6.45;;
76540;SDS011;65385;55.772;37.658;2023-08-06T01:43:01;15.75;;;6.97;;
76540;SDS011;65385;55.772;37.658;2023-08-06T01:44:02;11.73;;;6.32;;
76540;SDS011;65385;55.772;37.658;2023-08-06T01:45:02;11.05;;;6.35;;
76540;SDS011;65385;55.772;37.658;2023-08-06T01:46:03;14.20;;;6.70;;
76540;SDS011;65385;55.772;37.658;2023-08-06T01:47:04;13.05;;;6.70;;
76540;SDS011;65385;55.772;37.658;2023-08-06T01:48:06;13.95;;;6.72;;
76540;SDS011;65385;55.772;37.658;2023-08-06T01:49:07;11.35;;;6.80;;
76540;SDS011;65385;55.772;37.658;2023-08-06T01:50:08;11.32;;;6.82;;
76540;SDS011;65385;55.772;37.658;2023-08-06T01:51:09;10.30;;;6.45;;
76540;SDS011;65385;55.772;37.658;2023-08-06T01:52:09;14.85;;;6.43;;
76540;SDS011;65385;55.772;37.658;2023-08-06T01:53:10;14.27;;;7.15;;
76540;SDS011;65385;55.772;37.658;2023-08-06T01:54:10;13.23;;;6.90;;
76540;SDS011;65385;55.772;37.658;2023-08-06T01:55:12;10.82;;;6.60;;
76540;SDS011;65385;55.772;37.658;2023-08-06T01:56:13;12.20;;;6.47;;
76540;SDS011;65385;55.772;37.658;2023-08-06T01:57:13;12.07;;;6.13;;
76540;SDS011;65385;55.772;37.658;2023-08-06T01:58:14;13.02;;;7.03;;
76540;SDS011;65385;55.772;37.658;2023-08-06T01:59:14;10.50;;;6.43;;
76540;SDS011;65385;55.772;37.658;2023-08-06T02:00:15;9.65;;;6.53;;
76540;SDS011;65385;55.772;37.658;2023-08-06T02:01:16;13.57;;;7.43;;
76540;SDS011;65385;55.772;37.658;2023-08-06T02:02:17;11.52;;;6.40;;
76540;SDS011;65385;55.772;37.658;2023-08-06T02:03:18;12.13;;;6.65;;
76540;SDS011;65385;55.772;37.658;2023-08-06T02:04:18;13.68;;;7.03;;
76540;SDS011;65385;55.772;37.658;2023-08-06T02:05:19;17.52;;;6.85;;
76540;SDS011;65385;55.772;37.658;2023-08-06T02:06:19;12.77;;;7.00;;
76540;SDS011;65385;55.772;37.658;2023-08-06T02:07:20;15.40;;;6.05;;
76540;SDS011;65385;55.772;37.658;2023-08-06T02:08:21;10.50;;;6.03;;
76540;SDS011;65385;55.772;37.658;2023-08-06T02:09:22;12.38;;;6.50;;
76540;SDS011;65385;55.772;37.658;2023-08-06T02:10:23;9.27;;;5.93;;
76540;SDS011;65385;55.772;37.658;2023-08-06T02:11:24;14.93;;;6.88;;
76540;SDS011;65385;55.772;37.658;2023-08-06T02:12:24;10.20;;;5.97;;
76540;SDS011;65385;55.772;37.658;2023-08-06T02:13:25;12.52;;;6.05;;
76540;SDS011;65385;55.772;37.658;2023-08-06T02:14:26;9.50;;;6.53;;
76540;SDS011;65385;55.772;37.658;2023-08-06T02:15:26;10.82;;;6.32;;
76540;SDS011;65385;55.772;37.658;2023-08-06T02:16:27;11.50;;;6.55;;
76540;SDS011;65385;55.772;37.658;2023-08-06T02:17:28;8.75;;;6.00;;
76540;SDS011;65385;55.772;37.658;2023-08-06T02:18:28;11.93;;;5.70;;
76540;SDS011;65385;55.772;37.658;2023-08-06T02:19:29;13.20;;;6.88;;
76540;SDS011;65385;55.772;37.658;2023-08-06T02:20:30;13.70;;;6.38;;
76540;SDS011;65385;55.772;37.658;2023-08-06T02:21:30;11.32;;;6.90;;
76540;SDS011;65385;55.772;37.658;2023-08-06T02:22:31;12.05;;;6.60;;
76540;SDS011;65385;55.772;37.658;2023-08-06T02:23:32;11.38;;;6.38;;
76540;SDS011;65385;55.772;37.658;2023-08-06T02:24:32;26.70;;;6.75;;
76540;SDS011;65385;55.772;37.658;2023-08-06T02:25:33;13.13;;;6.35;;
76540;SDS011;65385;55.772;37.658;2023-08-06T02:26:34;13.02;;;6.80;;
76540;SDS011;65385;55.772;37.658;2023-08-06T02:27:35;15.23;;;6.93;;
76540;SDS011;65385;55.772;37.658;2023-08-06T02:28:37;13.93;;;6.55;;
76540;SDS011;65385;55.772;37.658;2023-08-06T02:29:39;9.85;;;6.25;;
76540;SDS011;65385;55.772;37.658;2023-08-06T02:30:49;10.98;;;6.57;;
76540;SDS011;65385;55.772;37.658;2023-08-06T02:31:50;11.60;;;7.03;;
76540;SDS011;65385;55.772;37.658;2023-08-06T02:32:51;13.20;;;6.93;;
76540;SDS011;65385;55.772;37.658;2023-08-06T02:33:51;15.45;;;6.05;;
76540;SDS011;65385;55.772;37.658;2023-08-06T02:34:54;12.77;;;6.93;;
76540;SDS011;65385;55.772;37.658;2023-08-06T02:36:03;9.93;;;6.72;;
76540;SDS011;65385;55.772;37.658;2023-08-06T02:37:05;10.40;;;6.13;;
76540;SDS011;65385;55.772;37.658;2023-08-06T02:38:05;13.07;;;7.18;;
76540;SDS011;65385;55.772;37.658;2023-08-06T02:39:06;10.55;;;6.38;;
76540;SDS011;65385;55.772;37.658;2023-08-06T02:40:07;15.68;;;6.47;;
76540;SDS011;65385;55.772;37.658;2023-08-06T02:41:08;12.50;;;6.55;;
76540;SDS011;65385;55.772;37.658;2023-08-06T02:42:08;13.27;;;6.55;;
76540;SDS011;65385;55.772;37.658;2023-08-06T02:43:09;14.05;;;7.13;;
76540;SDS011;65385;55.772;37.658;2023-08-06T02:44:10;10.77;;;6.30;;
76540;SDS011;65385;55.772;37.658;2023-08-06T02:45:11;10.80;;;6.88;;
76540;SDS011;65385;55.772;37.658;2023-08-06T02:46:11;9.52;;;6.97;;
76540;SDS011;65385;55.772;37.658;2023-08-06T02:47:12;13.50;;;7.47;;
76540;SDS011;65385;55.772;37.658;2023-08-06T02:48:13;11.35;;;6.75;;
76540;SDS011;65385;55.772;37.658;2023-08-06T02:49:13;13.93;;;7.15;;
76540;SDS011;65385;55.772;37.658;2023-08-06T02:50:14;18.08;;;6.30;;
76540;SDS011;65385;55.772;37.658;2023-08-06T02:51:14;12.15;;;7.15;;
76540;SDS011;65385;55.772;37.658;2023-08-06T02:52:15;15.73;;;7.10;;
76540;SDS011;65385;55.772;37.658;2023-08-06T02:53:16;15.57;;;7.22;;
76540;SDS011;65385;55.772;37.658;2023-08-06T02:54:18;17.23;;;6.70;;
76540;SDS011;65385;55.772;37.658;2023-08-06T02:55:19;15.35;;;6.80;;
76540;SDS011;65385;55.772;37.658;2023-08-06T02:56:21;11.60;;;6.43;;
76540;SDS011;65385;55.772;37.658;2023-08-06T02:58:45;15.85;;;7.22;;
76540;SDS011;65385;55.772;37.658;2023-08-06T03:00:02;13.32;;;6.60;;
76540;SDS011;65385;55.772;37.658;2023-08-06T03:01:05;12.48;;;7.00;;
76540;SDS011;65385;55.772;37.658;2023-08-06T03:02:15;12.32;;;6.65;;
76540;SDS011;65385;55.772;37.658;2023-08-06T03:03:47;14.23;;;6.80;;
76540;SDS011;65385;55.772;37.658;2023-08-06T03:04:55;13.50;;;6.40;;
76540;SDS011;65385;55.772;37.658;2023-08-06T03:05:58;10.75;;;6.50;;
76540;SDS011;65385;55.772;37.658;2023-08-06T03:07:20;14.05;;;7.10;;
76540;SDS011;65385;55.772;37.658;2023-08-06T03:08:28;13.88;;;6.40;;
76540;SDS011;65385;55.772;37.658;2023-08-06T03:09:29;12.02;;;7.00;;
76540;SDS011;65385;55.772;37.658;2023-08-06T03:10:30;12.60;;;7.93;;
76540;SDS011;65385;55.772;37.658;2023-08-06T03:11:34;13.77;;;6.82;;
76540;SDS011;65385;55.772;37.658;2023-08-06T03:12:40;14.80;;;7.10;;
76540;SDS011;65385;55.772;37.658;2023-08-06T03:13:41;13.85;;;7.57;;
76540;SDS011;65385;55.772;37.658;2023-08-06T03:14:42;11.73;;;7.07;;
76540;SDS011;65385;55.772;37.658;2023-08-06T03:15:43;11.52;;;7.07;;
76540;SDS011;65385;55.772;37.658;2023-08-06T03:16:51;10.55;;;6.70;;
76540;SDS011;65385;55.772;37.658;2023-08-06T03:17:55;14.73;;;7.10;;
76540;SDS011;65385;55.772;37.658;2023-08-06T03:18:56;15.88;;;7.15;;
76540;SDS011;65385;55.772;37.658;2023-08-06T03:19:57;12.40;;;7.15;;
76540;SDS011;65385;55.772;37.658;2023-08-06T03:20:59;11.95;;;7.78;;
76540;SDS011;65385;55.772;37.658;2023-08-06T03:22:03;12.57;;;7.32;;
76540;SDS011;65385;55.772;37.658;2023-08-06T03:23:05;13.73;;;7.43;;
76540;SDS011;65385;55.772;37.658;2023-08-06T03:24:06;15.48;;;7.75;;
76540;SDS011;65385;55.772;37.658;2023-08-06T03:25:08;20.02;;;7.78;;
76540;SDS011;65385;55.772;37.658;2023-08-06T03:26:10;16.27;;;7.75;;
76540;SDS011;65385;55.772;37.658;2023-08-06T03:27:11;17.23;;;8.35;;
76540;SDS011;65385;55.772;37.658;2023-08-06T03:28:14;15.65;;;7.45;;
76540;SDS011;65385;55.772;37.658;2023-08-06T03:29:16;13.63;;;7.18;;
76540;SDS011;65385;55.772;37.658;2023-08-06T03:30:17;13.13;;;7.88;;
76540;SDS011;65385;55.772;37.658;2023-08-06T03:31:18;17.20;;;7.32;;
76540;SDS011;65385;55.772;37.658;2023-08-06T03:32:19;14.43;;;7.75;;
76540;SDS011;65385;55.772;37.658;2023-08-06T03:33:20;14.65;;;7.45;;
76540;SDS011;65385;55.772;37.658;2023-08-06T03:34:21;10.68;;;7.10;;
76540;SDS011;65385;55.772;37.658;2023-08-06T03:35:23;13.18;;;7.15;;
76540;SDS011;65385;55.772;37.658;2023-08-06T03:36:24;13.57;;;8.00;;
76540;SDS011;65385;55.772;37.658;2023-08-06T03:37:25;15.45;;;7.57;;
76540;SDS011;65385;55.772;37.658;2023-08-06T03:38:26;13.50;;;8.02;;
76540;SDS011;65385;55.772;37.658;2023-08-06T03:39:28;12.13;;;6.95;;
76540;SDS011;65385;55.772;37.658;2023-08-06T03:40:29;12.98;;;7.82;;
76540;SDS011;65385;55.772;37.658;2023-08-06T03:41:31;16.65;;;8.45;;
76540;SDS011;65385;55.772;37.658;2023-08-06T03:42:32;13.02;;;8.18;;
76540;SDS011;65385;55.772;37.658;2023-08-06T03:43:33;14.15;;;7.72;;
76540;SDS011;65385;55.772;37.658;2023-08-06T03:44:35;14.43;;;7.75;;
76540;SDS011;65385;55.772;37.658;2023-08-06T03:45:35;12.40;;;7.93;;
76540;SDS011;65385;55.772;37.658;2023-08-06T03:46:36;16.33;;;8.55;;
76540;SDS011;65385;55.772;37.658;2023-08-06T03:47:40;12.55;;;7.82;;
76540;SDS011;65385;55.772;37.658;2023-08-06T03:48:41;13.77;;;7.65;;
76540;SDS011;65385;55.772;37.658;2023-08-06T03:49:41;11.73;;;7.43;;
76540;SDS011;65385;55.772;37.658;2023-08-06T03:50:43;15.07;;;7.63;;
76540;SDS011;65385;55.772;37.658;2023-08-06T03:51:47;14.68;;;7.28;;
76540;SDS011;65385;55.772;37.658;2023-08-06T03:52:48;14.40;;;7.55;;
76540;SDS011;65385;55.772;37.658;2023-08-06T03:53:49;12.43;;;7.70;;
76540;SDS011;65385;55.772;37.658;2023-08-06T03:54:49;14.43;;;7.30;;
76540;SDS011;65385;55.772;37.658;2023-08-06T03:55:50;13.23;;;7.47;;
76540;SDS011;65385;55.772;37.658;2023-08-06T03:56:51;15.27;;;7.20;;
76540;SDS011;65385;55.772;37.658;2023-08-06T03:57:51;12.93;;;7.30;;
76540;SDS011;65385;55.772;37.658;2023-08-06T03:58:52;14.63;;;7.70;;
76540;SDS011;65385;55.772;37.658;2023-08-06T03:59:53;15.40;;;7.65;;
76540;SDS011;65385;55.772;37.658;2023-08-06T04:01:00;13.93;;;7.38;;
76540;SDS011;65385;55.772;37.658;2023-08-06T04:02:05;12.55;;;7.80;;
76540;SDS011;65385;55.772;37.658;2023-08-06T04:03:06;12.90;;;6.63;;
76540;SDS011;65385;55.772;37.658;2023-08-06T04:04:06;12.00;;;6.97;;
76540;SDS011;65385;55.772;37.658;2023-08-06T04:05:07;14.20;;;7.20;;
76540;SDS011;65385;55.772;37.658;2023-08-06T04:06:08;11.93;;;6.90;;
76540;SDS011;65385;55.772;37.658;2023-08-06T04:07:10;12.50;;;7.13;;
76540;SDS011;65385;55.772;37.658;2023-08-06T04:08:11;14.98;;;6.97;;
76540;SDS011;65385;55.772;37.658;2023-08-06T04:09:11;11.40;;;6.18;;
76540;SDS011;65385;55.772;37.658;2023-08-06T04:10:13;12.32;;;6.82;;
76540;SDS011;65385;55.772;37.658;2023-08-06T04:11:14;13.32;;;7.00;;
76540;SDS011;65385;55.772;37.658;2023-08-06T04:12:16;15.40;;;7.25;;
76540;SDS011;65385;55.772;37.658;2023-08-06T04:13:16;13.80;;;6.97;;
76540;SDS011;65385;55.772;37.658;2023-08-06T04:14:17;16.48;;;7.03;;
76540;SDS011;65385;55.772;37.658;2023-08-06T04:15:17;14.30;;;7.15;;
76540;SDS011;65385;55.772;37.658;2023-08-06T04:16:18;10.88;;;6.55;;
76540;SDS011;65385;55.772;37.658;2023-08-06T04:17:19;15.77;;;6.53;;
76540;SDS011;65385;55.772;37.658;2023-08-06T04:18:21;14.45;;;7.15;;
76540;SDS011;65385;55.772;37.658;2023-08-06T04:19:22;13.05;;;7.40;;
76540;SDS011;65385;55.772;37.658;2023-08-06T04:20:22;15.10;;;7.47;;
76540;SDS011;65385;55.772;37.658;2023-08-06T04:21:23;12.52;;;6.60;;
76540;SDS011;65385;55.772;37.658;2023-08-06T04:22:24;12.98;;;7.28;;
76540;SDS011;65385;55.772;37.658;2023-08-06T04:23:25;16.85;;;7.25;;
76540;SDS011;65385;55.772;37.658;2023-08-06T04:24:28;14.18;;;7.43;;
76540;SDS011;65385;55.772;37.658;2023-08-06T04:25:29;14.23;;;6.32;;
76540;SDS011;65385;55.772;37.658;2023-08-06T04:26:30;12.68;;;6.82;;
76540;SDS011;65385;55.772;37.658;2023-08-06T04:27:30;16.15;;;7.25;;
76540;SDS011;65385;55.772;37.658;2023-08-06T04:28:31;14.45;;;7.32;;
76540;SDS011;65385;55.772;37.658;2023-08-06T04:29:32;12.98;;;7.03;;
76540;SDS011;65385;55.772;37.658;2023-08-06T04:30:33;12.45;;;6.50;;
76540;SDS011;65385;55.772;37.658;2023-08-06T04:31:34;17.02;;;6.60;;
76540;SDS011;65385;55.772;37.658;2023-08-06T04:32:35;14.10;;;6.75;;
76540;SDS011;65385;55.772;37.658;2023-08-06T04:33:36;12.93;;;6.93;;
76540;SDS011;65385;55.772;37.658;2023-08-06T04:34:41;11.90;;;6.93;;
76540;SDS011;65385;55.772;37.658;2023-08-06T04:35:42;14.95;;;6.88;;
76540;SDS011;65385;55.772;37.658;2023-08-06T04:36:42;12.90;;;6.57;;
76540;SDS011;65385;55.772;37.658;2023-08-06T04:37:44;12.07;;;6.80;;
76540;SDS011;65385;55.772;37.658;2023-08-06T04:38:45;14.90;;;6.63;;
76540;SDS011;65385;55.772;37.658;2023-08-06T04:39:49;14.18;;;6.53;;
76540;SDS011;65385;55.772;37.658;2023-08-06T04:40:52;14.98;;;6.70;;
76540;SDS011;65385;55.772;37.658;2023-08-06T04:41:54;10.85;;;6.70;;
76540;SDS011;65385;55.772;37.658;2023-08-06T04:42:56;14.55;;;6.78;;
76540;SDS011;65385;55.772;37.658;2023-08-06T04:43:57;10.40;;;6.95;;
76540;SDS011;65385;55.772;37.658;2023-08-06T04:44:58;11.32;;;6.70;;
76540;SDS011;65385;55.772;37.658;2023-08-06T04:45:59;14.48;;;6.47;;
76540;SDS011;65385;55.772;37.658;2023-08-06T04:46:59;12.65;;;6.85;;
76540;SDS011;65385;55.772;37.658;2023-08-06T04:48:00;10.70;;;6.75;;
76540;SDS011;65385;55.772;37.658;2023-08-06T04:49:00;14.80;;;6.40;;
76540;SDS011;65385;55.772;37.658;2023-08-06T04:50:01;14.82;;;6.88;;
76540;SDS011;65385;55.772;37.658;2023-08-06T04:51:02;12.25;;;6.95;;
76540;SDS011;65385;55.772;37.658;2023-08-06T04:52:02;12.73;;;7.72;;
76540;SDS011;65385;55.772;37.658;2023-08-06T04:53:03;15.43;;;7.25;;
76540;SDS011;65385;55.772;37.658;2023-08-06T04:54:04;12.15;;;6.97;;
76540;SDS011;65385;55.772;37.658;2023-08-06T04:55:04;13.40;;;6.93;;
76540;SDS011;65385;55.772;37.658;2023-08-06T04:56:06;14.73;;;6.97;;
76540;SDS011;65385;55.772;37.658;2023-08-06T04:57:07;13.80;;;7.10;;
76540;SDS011;65385;55.772;37.658;2023-08-06T04:58:09;13.18;;;7.03;;
76540;SDS011;65385;55.772;37.658;2023-08-06T04:59:10;10.68;;;6.95;;
76540;SDS011;65385;55.772;37.658;2023-08-06T05:00:11;15.10;;;7.70;;
76540;SDS011;65385;55.772;37.658;2023-08-06T05:01:12;16.88;;;7.57;;
76540;SDS011;65385;55.772;37.658;2023-08-06T05:02:12;15.63;;;7.30;;
76540;SDS011;65385;55.772;37.658;2023-08-06T05:03:13;14.82;;;6.72;;
76540;SDS011;65385;55.772;37.658;2023-08-06T05:04:14;10.95;;;7.32;;
76540;SDS011;65385;55.772;37.658;2023-08-06T05:05:14;12.38;;;7.10;;
76540;SDS011;65385;55.772;37.658;2023-08-06T05:06:15;10.23;;;6.85;;
76540;SDS011;65385;55.772;37.658;2023-08-06T05:07:15;17.98;;;7.13;;
76540;SDS011;65385;55.772;37.658;2023-08-06T05:08:16;13.38;;;6.93;;
76540;SDS011;65385;55.772;37.658;2023-08-06T05:09:17;13.07;;;7.47;;
76540;SDS011;65385;55.772;37.658;2023-08-06T05:10:17;13.85;;;7.05;;
76540;SDS011;65385;55.772;37.658;2023-08-06T05:11:18;14.52;;;6.45;;
76540;SDS011;65385;55.772;37.658;2023-08-06T05:12:19;11.40;;;6.40;;
76540;SDS011;65385;55.772;37.658;2023-08-06T05:13:19;13.43;;;7.35;;
76540;SDS011;65385;55.772;37.658;2023-08-06T05:14:20;13.77;;;6.85;;
76540;SDS011;65385;55.772;37.658;2023-08-06T05:15:21;13.95;;;7.00;;
76540;SDS011;65385;55.772;37.658;2023-08-06T05:16:21;12.05;;;6.82;;
76540;SDS011;65385;55.772;37.658;2023-08-06T05:17:22;14.25;;;6.95;;
76540;SDS011;65385;55.772;37.658;2023-08-06T05:18:23;11.73;;;6.90;;
76540;SDS011;65385;55.772;37.658;2023-08-06T05:19:24;9.93;;;6.60;;
76540;SDS011;65385;55.772;37.658;2023-08-06T05:20:24;9.95;;;6.25;;
76540;SDS011;65385;55.772;37.658;2023-08-06T05:21:25;15.40;;;7.07;;
76540;SDS011;65385;55.772;37.658;2023-08-06T05:22:26;15.73;;;7.78;;
76540;SDS011;65385;55.772;37.658;2023-08-06T05:23:26;15.07;;;7.32;;
76540;SDS011;65385;55.772;37.658;2023-08-06T05:24:27;15.32;;;7.18;;
76540;SDS011;65385;55.772;37.658;2023-08-06T05:25:27;14.85;;;6.65;;
76540;SDS011;65385;55.772;37.658;2023-08-06T05:26:28;14.23;;;7.15;;
76540;SDS011;65385;55.772;37.658;2023-08-06T05:27:29;13.52;;;6.72;;
76540;SDS011;65385;55.772;37.658;2023-08-06T05:28:29;14.32;;;7.13;;
76540;SDS011;65385;55.772;37.658;2023-08-06T05:29:30;13.50;;;6.65;;
76540;SDS011;65385;55.772;37.658;2023-08-06T05:30:31;11.60;;;6.93;;
76540;SDS011;65385;55.772;37.658;2023-08-06T05:31:31;12.95;;;7.20;;
76540;SDS011;65385;55.772;37.658;2023-08-06T05:32:32;14.68;;;7.47;;
76540;SDS011;65385;55.772;37.658;2023-08-06T05:33:32;14.63;;;7.15;;
76540;SDS011;65385;55.772;37.658;2023-08-06T05:34:33;11.00;;;6.70;;
76540;SDS011;65385;55.772;37.658;2023-08-06T05:35:33;13.52;;;7.28;;
76540;SDS011;65385;55.772;37.658;2023-08-06T05:36:34;10.50;;;6.80;;
76540;SDS011;65385;55.772;37.658;2023-08-06T05:37:35;12.30;;;6.97;;
76540;SDS011;65385;55.772;37.658;2023-08-06T05:38:36;15.65;;;7.18;;
76540;SDS011;65385;55.772;37.658;2023-08-06T05:39:36;13.93;;;6.38;;
76540;SDS011;65385;55.772;37.658;2023-08-06T05:40:37;12.57;;;6.32;;
76540;SDS011;65385;55.772;37.658;2023-08-06T05:41:37;18.35;;;7.13;;
76540;SDS011;65385;55.772;37.658;2023-08-06T05:42:38;14.82;;;6.97;;
76540;SDS011;65385;55.772;37.658;2023-08-06T05:43:39;14.23;;;7.13;;
76540;SDS011;65385;55.772;37.658;2023-08-06T05:44:40;14.30;;;7.63;;
76540;SDS011;65385;55.772;37.658;2023-08-06T05:45:44;14.30;;;7.43;;
76540;SDS011;65385;55.772;37.658;2023-08-06T05:46:46;15.07;;;6.60;;
76540;SDS011;65385;55.772;37.658;2023-08-06T05:47:49;13.48;;;6.65;;
76540;SDS011;65385;55.772;37.658;2023-08-06T05:48:50;13.40;;;6.47;;
76540;SDS011;65385;55.772;37.658;2023-08-06T05:49:51;13.85;;;7.10;;
76540;SDS011;65385;55.772;37.658;2023-08-06T05:50:52;15.15;;;7.13;;
76540;SDS011;65385;55.772;37.658;2023-08-06T05:51:52;11.35;;;6.78;;
76540;SDS011;65385;55.772;37.658;2023-08-06T05:52:56;11.85;;;6.10;;
76540;SDS011;65385;55.772;37.658;2023-08-06T05:53:57;10.82;;;6.53;;
76540;SDS011;65385;55.772;37.658;2023-08-06T05:54:57;12.38;;;6.82;;
76540;SDS011;65385;55.772;37.658;2023-08-06T05:55:58;12.75;;;6.75;;
76540;SDS011;65385;55.772;37.658;2023-08-06T05:56:59;12.70;;;6.53;;
76540;SDS011;65385;55.772;37.658;2023-08-06T05:57:59;12.07;;;6.57;;
76540;SDS011;65385;55.772;37.658;2023-08-06T05:59:00;13.77;;;6.90;;
76540;SDS011;65385;55.772;37.658;2023-08-06T06:00:01;15.27;;;6.65;;
76540;SDS011;65385;55.772;37.658;2023-08-06T06:01:14;12.95;;;6.50;;
76540;SDS011;65385;55.772;37.658;2023-08-06T06:02:14;12.50;;;5.97;;
76540;SDS011;65385;55.772;37.658;2023-08-06T06:03:15;15.68;;;6.40;;
76540;SDS011;65385;55.772;37.658;2023-08-06T06:04:16;11.07;;;6.30;;
76540;SDS011;65385;55.772;37.658;2023-08-06T06:05:16;9.85;;;5.95;;
76540;SDS011;65385;55.772;37.658;2023-08-06T06:06:17;12.20;;;6.05;;
76540;SDS011;65385;55.772;37.658;2023-08-06T06:07:18;11.73;;;6.13;;
76540;SDS011;65385;55.772;37.658;2023-08-06T06:08:19;12.73;;;6.22;;
76540;SDS011;65385;55.772;37.658;2023-08-06T06:09:20;13.18;;;6.35;;